White Mountain Summit Weather observations

Data are for 10 minute period ending at time listed.
 Day   Time   Solar   Ave.   Ave.  Ave.  Vector    Max.    Baro.  
  of    of     Rad.   Air    Rel.  Wind   Wind     Wind   Press.  
Year   Day            Temp.  Hum.  Speed  Dir.     Gust           
2014   (PST)   W/m2    F      %     mph   deg.      mph     mb.   
-------------------------------------------------------------------
 244    8:30    0.0    43   30.2    11    281.9    14.1   999.0 
 244    8:40    0.0    43   30.0    12    281.9    14.1   999.0 
 244    8:50    0.0    44   29.2    10    281.9    11.8   999.0 
 244    9:00    0.0    44   29.5     8    281.7    11.8   999.0 
 244    9:10    0.0    45   28.4     9    281.6    11.8   999.0 
 244    9:20    0.0    46   28.0     9    281.6    11.8   999.0 
 244    9:30    0.0    48   29.4     8    276.1    11.8   999.0 
 244    9:40    0.0    47   30.8     7    275.4     9.4   999.0 
 244    9:50    0.0    48   30.4     8    275.4    11.8   999.0 
 244   10:00    0.0    47   30.0     8    246.2    11.8   999.0 
 244   10:10    0.0    48   29.7     9    245.2    14.1   999.0 
 244   10:20    0.0    49   28.3     9    244.8    14.1   999.0 
 244   10:30    0.0    50   28.5    11    257.5    14.1   999.0 
 244   10:40    0.0    50   28.5    13    264.5    16.5   999.0 
 244   10:50    0.0    51   27.7    14    270.1    16.5   999.0 
 244   11:00    0.0    51   27.8    14    263.9    16.5   999.0 
 244   11:10    0.0    51   27.6    14    263.8    16.5   999.0 
 244   11:20    0.0    52   26.2    13    280.0    16.5   999.0 
 244   11:30    0.0    53   25.5    13    279.3    16.5   999.0 
 244   11:40    0.0    53   24.7    16    276.3    18.8   999.0 
 244   11:50    0.0    53   24.1    16    269.5    18.8   999.0 
 244   12:00    0.0    54   23.1    13    272.9    18.8   999.0 
 244   12:10    0.0    55   23.3    12    281.1    16.5   999.0 
 244   12:20    0.0    55   23.8    12    267.5    14.1   999.0 
 244   12:30    0.0    55   24.0    13    266.9    16.5   999.0 
 244   12:40    0.0    56   23.1    14    266.6    18.8   999.0 
 244   12:50    0.0    56   23.5    15    268.5    18.8   999.0 
 244   13:00    0.0    56   22.9    14    271.3    16.5   999.0 
 244   13:10    0.0    57   22.8    14    271.7    18.8   999.0 
 244   13:20    0.0    57   22.0    15    271.8    21.2   999.0 
 244   13:30    0.0    58   22.2    15    263.0    21.2   999.0 
 244   13:40    0.0    58   21.7    13    268.0    18.8   999.0 
 244   13:50    0.0    57   22.5    15    264.3    21.2   999.0 
 244   14:00    0.0    58   23.3    14    266.2    18.8   999.0 
 244   14:10    0.0    57   24.1    16    259.0    21.2   999.0 
 244   14:20    0.0    58   24.3    15    269.3    21.2   999.0 
 244   14:30    0.0    58   24.2    15    270.5    21.2   999.0 
 244   14:40    0.0    58   23.8    15    266.2    23.5   999.0 
 244   14:50    0.0    58   24.1    17    262.9    21.2   999.0 
 244   15:00    0.0    58   25.1    16    263.2    21.2   999.0 
 244   15:10    0.0    58   24.8    18    264.9    21.2   999.0 
 244   15:20    0.0    57   25.5    15    265.7    21.2   999.0 
 244   15:30    0.0    57   26.1    17    269.5    21.2   999.0 
 244   15:40    0.0    56   26.7    18    267.7    25.9   999.0 
 244   15:50    0.0    56   26.8    22    262.8    28.2   999.0 
 244   16:00    0.0    56   26.9    22    265.9    28.2   999.0 
 244   16:10    0.0    56   26.7    22    264.7    30.6   999.0 
 244   16:20    0.0    56   26.5    24    266.5    30.6   999.0 
 244   16:30    0.0    55   26.6    23    267.6    30.6   999.0 
 244   16:40    0.0    54   27.5    23    266.8    28.2   999.0 
 244   16:50    0.0    54   27.7    22    264.0    30.6   999.0 
 244   17:00    0.0    54   28.2    22    264.7    33.0   999.0 
 244   17:10    0.0    54   27.6    21    267.9    28.2   999.0 
 244   17:20    0.0    53   28.2    20    268.3    30.6   999.0 
 244   17:30    0.0    52   29.0    22    275.1    28.2   999.0 
 244   17:40    0.0    52   29.5    20    271.1    25.9   999.0 
 244   17:50    0.0    52   29.9    21    273.5    25.9   999.0 
 244   18:00    0.0    51   30.4    18    274.7    23.5   999.0 
 244   18:10    0.0    51   30.9    18    269.7    23.5   999.0 
 244   18:20    0.0    50   31.4    16    268.7    18.8   999.0 
 244   18:30    0.0    50   31.8    14    268.0    18.8   999.0 
 244   18:40    0.0    49   32.6    11    268.0    14.1   999.0 
 244   18:50    0.0    49   33.1     7    268.0    11.8   999.0 
 244   19:00    0.0    48   34.1     5    268.0     9.4   999.0 
 244   19:10    0.0    48   34.8     7    268.0    11.8   999.0 
 244   19:20    0.0    47   35.0     6    268.0     9.4   999.0 
 244   19:30    0.0    47   35.4     6    268.0     9.4   999.0 
 244   19:40    0.0    47   36.1     4    268.0     7.1   999.0 
 244   19:50    0.0    47   36.0     3    268.0     4.7   999.0 
 244   20:00    0.0    47   36.2     2    268.0     4.7   999.0 
 244   20:10    0.0    46   36.8     3    268.0     4.7   999.0 
 244   20:20    0.0    45   38.0     3    267.8     4.7   999.0 
 244   20:30    0.0    45   38.1     1    267.8     4.7   999.0 
 244   20:40    0.0    45   38.1     0    267.8     2.4   999.0 
 244   20:50    0.0    45   37.7     2    267.8     4.7   999.0 
 244   21:00    0.0    45   38.7     1    267.8     4.7   999.0 
 244   21:10    0.0    44   38.1     3    267.8     4.7   999.0 
 244   21:20    0.0    45   38.5     3    267.8     4.7   999.0 
 244   21:30    0.0    45   38.8     2    267.8     4.7   999.0 
 244   21:40    0.0    45   38.6     1    267.8     4.7   999.0 
 244   21:50    0.0    44   38.6     2    267.8     4.7   999.0 
 244   22:00    0.0    44   39.0     1    267.8     2.4   999.0 
 244   22:10    0.0    44   39.2     2    267.8     4.7   999.0 
 244   22:20    0.0    44   39.8     1    267.9     2.4   999.0 
 244   22:30    0.0    44   40.3     3    267.8     4.7   999.0 
 244   22:40    0.0    43   40.8     4    267.9     7.1   999.0 
 244   22:50    0.0    42   41.9     6    265.6     9.4   999.0 
 244   23:00    0.0    42   42.8     6    264.6     9.4   999.0 
 244   23:10    0.0    42   43.2     6    264.6     7.1   999.0 
 244   23:20    0.0    42   43.1     8    258.6    11.8   999.0 
 244   23:30    0.0    42   43.1     7    197.1    11.8   999.0 
 244   23:40    0.0    42   43.2     8    186.7     9.4   999.0 
 244   23:50    0.0    42   43.4     9    190.6    11.8   999.0 
 245    0:00    0.0    41   43.5    10    192.0    14.1   999.0 
 245    0:10    0.0    41   43.7    10    201.7    14.1   999.0 
 245    0:20    0.0    41   44.0    11    197.2    14.1   999.0 
 245    0:30    0.0    41   43.9    11    202.1    14.1   999.0 
 245    0:40    0.0    41   43.5    12    223.3    16.5   999.0 
 245    0:50    0.0    41   43.3    12    228.3    16.5   999.0 
 245    1:00    0.0    41   43.6    12    220.6    16.5   999.0 
 245    1:10    0.0    41   43.6    13    216.3    16.5   999.0 
 245    1:20    0.0    40   43.6    15    211.2    18.8   999.0 
 245    1:30    0.0    40   43.9    16    206.8    18.8   999.0 
 245    1:40    0.0    40   44.2    15    208.6    18.8   999.0 
 245    1:50    0.0    40   44.2    17    202.0    18.8   999.0 
 245    2:00    0.0    40   44.1    17    202.2    21.2   999.0 
 245    2:10    0.0    40   44.3    16    205.6    18.8   999.0 
 245    2:20    0.0    40   44.1    18    195.0    21.2   999.0 
 245    2:30    0.0    40   44.3    17    205.9    21.2   999.0 
 245    2:40    0.0    40   44.3    16    214.0    18.8   999.0 
 245    2:50    0.0    40   44.0    18    214.1    21.2   999.0 
 245    3:00    0.0    40   43.3    17    222.6    21.2   999.0 
 245    3:10    0.0    40   43.6    16    222.6    21.2   999.0 
 245    3:20    0.0    40   44.1    16    218.1    18.8   999.0 
 245    3:30    0.0    40   44.5    16    221.0    21.2   999.0 
 245    3:40    0.0    40   45.2    14    227.6    18.8   999.0 
 245    3:50    0.0    39   46.5    15    223.7    18.8   999.0 
 245    4:00    0.0    39   46.3    15    226.9    18.8   999.0 
 245    4:10    0.0    39   45.5    16    223.2    21.2   999.0 
 245    4:20    0.0    39   46.2    14    218.8    21.2   999.0 
 245    4:30    0.0    39   48.1    17    222.9    23.5   999.0 
 245    4:40    0.0    39   47.8    16    225.1    21.2   999.0 
 245    4:50    0.0    39   46.8    17    226.8    21.2   999.0 
 245    5:00    0.0    39   46.5    17    228.5    23.5   999.0 
 245    5:10    0.0    38   46.7    18    225.0    25.9   999.0 
 245    5:20    0.0    38   47.6    21    226.8    28.2   999.0 
 245    5:30    0.0    38   47.7    20    226.2    25.9   999.0 
 245    5:40    0.0    38   48.1    22    226.4    25.9   999.0 
 245    5:50    0.0    38   49.0    22    227.5    25.9   999.0 
 245    6:00    0.0    38   50.2    23    226.8    25.9   999.0 
 245    6:10    0.0    38   52.0    22    224.6    25.9   999.0 
 245    6:20    0.0    38   52.7    23    239.2    28.2   999.0 
 245    6:30    0.0    38   52.8    25    255.1    30.6   999.0 
 245    6:40    0.0    38   52.8    26    255.7    35.3   999.0 
 245    6:50    0.0    39   52.5    28    261.5    33.0   999.0 
 245    7:00    0.0    39   51.8    29    263.7    33.0   999.0 
 245    7:10    0.0    39   52.5    29    264.1    33.0   999.0 
 245    7:20    0.0    39   52.0    28    259.4    30.6   999.0 
 245    7:30    0.0    39   51.6    29    257.4    33.0   999.0 
 245    7:40    0.0    39   51.2    29    258.2    33.0   999.0 
 245    7:50    0.0    40   50.7    28    260.5    30.6   999.0 
 245    8:00    0.0    40   49.7    28    260.7    30.6   999.0 
 245    8:10    0.0    40   50.3    26    261.9    30.6   999.0 
 245    8:20    0.0    40   49.7    25    265.7    28.2   999.0 

Return to White Mountain graphs page.


Western Regional Climate Center,wrcc@dri.edu